sensor_id;sensor_type;location;lat;lon;timestamp;P1;durP1;ratioP1;P2;durP2;ratioP2
1308;SDS011;647;48.840;9.314;2023-04-06T00:00:35;80.55;;;17.70;;
1308;SDS011;647;48.840;9.314;2023-04-06T00:03:03;73.88;;;16.50;;
1308;SDS011;647;48.840;9.314;2023-04-06T00:05:30;73.57;;;14.77;;
1308;SDS011;647;48.840;9.314;2023-04-06T00:07:57;72.32;;;14.75;;
1308;SDS011;647;48.840;9.314;2023-04-06T00:10:25;75.97;;;14.93;;
1308;SDS011;647;48.840;9.314;2023-04-06T00:12:52;79.18;;;15.15;;
1308;SDS011;647;48.840;9.314;2023-04-06T00:15:19;72.90;;;15.35;;
1308;SDS011;647;48.840;9.314;2023-04-06T00:17:47;70.55;;;13.63;;
1308;SDS011;647;48.840;9.314;2023-04-06T00:20:15;73.68;;;14.55;;
1308;SDS011;647;48.840;9.314;2023-04-06T00:22:43;72.00;;;13.75;;
1308;SDS011;647;48.840;9.314;2023-04-06T00:25:10;71.93;;;14.38;;
1308;SDS011;647;48.840;9.314;2023-04-06T00:27:38;70.18;;;13.27;;
1308;SDS011;647;48.840;9.314;2023-04-06T00:30:05;72.00;;;14.60;;
1308;SDS011;647;48.840;9.314;2023-04-06T00:32:33;76.60;;;13.20;;
1308;SDS011;647;48.840;9.314;2023-04-06T00:35:01;69.82;;;12.73;;
1308;SDS011;647;48.840;9.314;2023-04-06T00:37:30;72.97;;;13.90;;
1308;SDS011;647;48.840;9.314;2023-04-06T00:39:57;71.70;;;13.48;;
1308;SDS011;647;48.840;9.314;2023-04-06T00:42:24;69.57;;;12.90;;
1308;SDS011;647;48.840;9.314;2023-04-06T00:44:52;74.93;;;13.90;;
1308;SDS011;647;48.840;9.314;2023-04-06T00:47:19;68.55;;;13.43;;
1308;SDS011;647;48.840;9.314;2023-04-06T00:49:47;71.78;;;12.10;;
1308;SDS011;647;48.840;9.314;2023-04-06T00:52:14;70.40;;;12.73;;
1308;SDS011;647;48.840;9.314;2023-04-06T00:54:43;71.32;;;12.75;;
1308;SDS011;647;48.840;9.314;2023-04-06T00:57:10;69.78;;;13.73;;
1308;SDS011;647;48.840;9.314;2023-04-06T00:59:38;69.47;;;13.40;;
1308;SDS011;647;48.840;9.314;2023-04-06T01:02:05;69.25;;;12.82;;
1308;SDS011;647;48.840;9.314;2023-04-06T01:04:32;72.90;;;13.80;;
1308;SDS011;647;48.840;9.314;2023-04-06T01:07:00;68.55;;;12.50;;
1308;SDS011;647;48.840;9.314;2023-04-06T01:09:27;68.90;;;13.95;;
1308;SDS011;647;48.840;9.314;2023-04-06T01:11:56;69.75;;;12.18;;
1308;SDS011;647;48.840;9.314;2023-04-06T01:14:23;69.25;;;11.80;;
1308;SDS011;647;48.840;9.314;2023-04-06T01:16:51;71.85;;;13.38;;
1308;SDS011;647;48.840;9.314;2023-04-06T01:19:18;67.53;;;12.20;;
1308;SDS011;647;48.840;9.314;2023-04-06T01:21:46;69.43;;;12.80;;
1308;SDS011;647;48.840;9.314;2023-04-06T01:24:15;69.78;;;13.00;;
1308;SDS011;647;48.840;9.314;2023-04-06T01:26:43;69.47;;;13.05;;
1308;SDS011;647;48.840;9.314;2023-04-06T01:29:10;71.85;;;12.57;;
1308;SDS011;647;48.840;9.314;2023-04-06T01:31:37;72.38;;;13.48;;
1308;SDS011;647;48.840;9.314;2023-04-06T01:34:05;69.28;;;12.00;;
1308;SDS011;647;48.840;9.314;2023-04-06T01:36:32;69.90;;;13.07;;
1308;SDS011;647;48.840;9.314;2023-04-06T01:38:59;67.95;;;11.43;;
1308;SDS011;647;48.840;9.314;2023-04-06T01:41:28;68.60;;;12.15;;
1308;SDS011;647;48.840;9.314;2023-04-06T01:43:55;68.25;;;12.23;;
1308;SDS011;647;48.840;9.314;2023-04-06T01:46:22;68.28;;;12.52;;
1308;SDS011;647;48.840;9.314;2023-04-06T01:48:49;72.35;;;12.85;;
1308;SDS011;647;48.840;9.314;2023-04-06T01:51:17;74.07;;;12.82;;
1308;SDS011;647;48.840;9.314;2023-04-06T01:53:44;68.05;;;12.60;;
1308;SDS011;647;48.840;9.314;2023-04-06T01:56:11;66.82;;;11.27;;
1308;SDS011;647;48.840;9.314;2023-04-06T01:58:40;67.53;;;11.38;;
1308;SDS011;647;48.840;9.314;2023-04-06T02:01:07;68.60;;;11.35;;
1308;SDS011;647;48.840;9.314;2023-04-06T02:03:34;69.45;;;12.93;;
1308;SDS011;647;48.840;9.314;2023-04-06T02:06:01;67.65;;;11.88;;
1308;SDS011;647;48.840;9.314;2023-04-06T02:08:29;68.07;;;11.05;;
1308;SDS011;647;48.840;9.314;2023-04-06T02:10:56;66.13;;;11.43;;
1308;SDS011;647;48.840;9.314;2023-04-06T02:13:23;66.90;;;11.57;;
1308;SDS011;647;48.840;9.314;2023-04-06T02:15:51;67.18;;;11.57;;
1308;SDS011;647;48.840;9.314;2023-04-06T02:18:19;69.88;;;12.13;;
1308;SDS011;647;48.840;9.314;2023-04-06T02:20:46;67.20;;;12.32;;
1308;SDS011;647;48.840;9.314;2023-04-06T02:23:13;65.90;;;11.05;;
1308;SDS011;647;48.840;9.314;2023-04-06T02:25:40;66.07;;;10.90;;
1308;SDS011;647;48.840;9.314;2023-04-06T02:28:07;70.68;;;11.95;;
1308;SDS011;647;48.840;9.314;2023-04-06T02:30:35;69.25;;;12.32;;
1308;SDS011;647;48.840;9.314;2023-04-06T02:33:03;70.68;;;12.35;;
1308;SDS011;647;48.840;9.314;2023-04-06T02:35:31;70.88;;;12.18;;
1308;SDS011;647;48.840;9.314;2023-04-06T02:37:58;70.15;;;12.75;;
1308;SDS011;647;48.840;9.314;2023-04-06T02:40:25;70.97;;;13.18;;
1308;SDS011;647;48.840;9.314;2023-04-06T02:42:52;68.93;;;12.95;;
1308;SDS011;647;48.840;9.314;2023-04-06T02:45:19;71.50;;;11.80;;
1308;SDS011;647;48.840;9.314;2023-04-06T02:47:47;72.90;;;11.80;;
1308;SDS011;647;48.840;9.314;2023-04-06T02:50:16;68.07;;;11.63;;
1308;SDS011;647;48.840;9.314;2023-04-06T02:52:43;69.30;;;12.82;;
1308;SDS011;647;48.840;9.314;2023-04-06T02:55:10;68.38;;;12.52;;
1308;SDS011;647;48.840;9.314;2023-04-06T02:57:37;69.25;;;11.85;;
1308;SDS011;647;48.840;9.314;2023-04-06T03:00:05;68.15;;;11.95;;
1308;SDS011;647;48.840;9.314;2023-04-06T03:02:32;69.20;;;12.73;;
1308;SDS011;647;48.840;9.314;2023-04-06T03:05:00;69.47;;;13.23;;
1308;SDS011;647;48.840;9.314;2023-04-06T03:07:29;68.10;;;12.45;;
1308;SDS011;647;48.840;9.314;2023-04-06T03:09:56;69.47;;;12.15;;
1308;SDS011;647;48.840;9.314;2023-04-06T03:12:24;70.13;;;13.77;;
1308;SDS011;647;48.840;9.314;2023-04-06T03:14:51;73.85;;;14.15;;
1308;SDS011;647;48.840;9.314;2023-04-06T03:17:18;68.05;;;12.57;;
1308;SDS011;647;48.840;9.314;2023-04-06T03:19:45;72.07;;;12.50;;
1308;SDS011;647;48.840;9.314;2023-04-06T03:22:12;70.65;;;12.15;;
1308;SDS011;647;48.840;9.314;2023-04-06T03:24:41;67.10;;;11.50;;
1308;SDS011;647;48.840;9.314;2023-04-06T03:27:08;71.35;;;12.10;;
1308;SDS011;647;48.840;9.314;2023-04-06T03:29:35;66.65;;;12.00;;
1308;SDS011;647;48.840;9.314;2023-04-06T03:32:03;69.88;;;11.63;;
1308;SDS011;647;48.840;9.314;2023-04-06T03:34:30;69.47;;;11.90;;
1308;SDS011;647;48.840;9.314;2023-04-06T03:36:57;69.97;;;13.65;;
1308;SDS011;647;48.840;9.314;2023-04-06T03:39:24;72.82;;;13.57;;
1308;SDS011;647;48.840;9.314;2023-04-06T03:41:53;69.82;;;13.50;;
1308;SDS011;647;48.840;9.314;2023-04-06T03:44:20;75.10;;;13.75;;
1308;SDS011;647;48.840;9.314;2023-04-06T03:46:47;68.97;;;12.50;;
1308;SDS011;647;48.840;9.314;2023-04-06T03:49:14;69.15;;;11.90;;
1308;SDS011;647;48.840;9.314;2023-04-06T03:51:42;69.53;;;13.18;;
1308;SDS011;647;48.840;9.314;2023-04-06T03:54:09;71.47;;;13.13;;
1308;SDS011;647;48.840;9.314;2023-04-06T03:56:36;69.00;;;12.27;;
1308;SDS011;647;48.840;9.314;2023-04-06T03:59:05;69.60;;;12.70;;
1308;SDS011;647;48.840;9.314;2023-04-06T04:01:32;68.05;;;12.23;;
1308;SDS011;647;48.840;9.314;2023-04-06T04:03:59;68.68;;;11.60;;
1308;SDS011;647;48.840;9.314;2023-04-06T04:06:26;73.68;;;13.65;;
1308;SDS011;647;48.840;9.314;2023-04-06T04:08:53;68.15;;;12.95;;
1308;SDS011;647;48.840;9.314;2023-04-06T04:11:21;72.63;;;12.88;;
1308;SDS011;647;48.840;9.314;2023-04-06T04:13:48;68.78;;;12.05;;
1308;SDS011;647;48.840;9.314;2023-04-06T04:16:16;69.57;;;12.13;;
1308;SDS011;647;48.840;9.314;2023-04-06T04:18:43;69.60;;;12.10;;
1308;SDS011;647;48.840;9.314;2023-04-06T04:21:12;68.70;;;12.77;;
1308;SDS011;647;48.840;9.314;2023-04-06T04:23:39;70.38;;;13.02;;
1308;SDS011;647;48.840;9.314;2023-04-06T04:26:06;71.68;;;14.27;;
1308;SDS011;647;48.840;9.314;2023-04-06T04:28:33;72.55;;;13.85;;
1308;SDS011;647;48.840;9.314;2023-04-06T04:31:01;68.10;;;13.00;;
1308;SDS011;647;48.840;9.314;2023-04-06T04:33:29;73.05;;;13.13;;
1308;SDS011;647;48.840;9.314;2023-04-06T04:35:56;70.72;;;12.98;;
1308;SDS011;647;48.840;9.314;2023-04-06T04:38:23;70.88;;;13.25;;
1308;SDS011;647;48.840;9.314;2023-04-06T04:40:51;74.15;;;12.98;;
1308;SDS011;647;48.840;9.314;2023-04-06T04:43:18;67.80;;;12.32;;
1308;SDS011;647;48.840;9.314;2023-04-06T04:45:45;69.78;;;13.55;;
1308;SDS011;647;48.840;9.314;2023-04-06T04:48:12;67.65;;;12.93;;
1308;SDS011;647;48.840;9.314;2023-04-06T04:50:41;68.20;;;12.07;;
1308;SDS011;647;48.840;9.314;2023-04-06T04:53:08;68.60;;;11.70;;
1308;SDS011;647;48.840;9.314;2023-04-06T04:55:35;70.55;;;13.82;;
1308;SDS011;647;48.840;9.314;2023-04-06T04:58:02;70.35;;;13.05;;
1308;SDS011;647;48.840;9.314;2023-04-06T05:00:29;72.15;;;12.73;;
1308;SDS011;647;48.840;9.314;2023-04-06T05:02:56;70.50;;;14.25;;
1308;SDS011;647;48.840;9.314;2023-04-06T05:05:23;70.68;;;13.13;;
1308;SDS011;647;48.840;9.314;2023-04-06T05:07:52;76.03;;;13.90;;
1308;SDS011;647;48.840;9.314;2023-04-06T05:10:19;69.03;;;12.30;;
1308;SDS011;647;48.840;9.314;2023-04-06T05:12:46;69.45;;;12.73;;
1308;SDS011;647;48.840;9.314;2023-04-06T05:15:14;70.05;;;12.93;;
1308;SDS011;647;48.840;9.314;2023-04-06T05:17:41;69.97;;;13.82;;
1308;SDS011;647;48.840;9.314;2023-04-06T05:20:08;74.05;;;13.15;;
1308;SDS011;647;48.840;9.314;2023-04-06T05:22:36;71.00;;;14.00;;
1308;SDS011;647;48.840;9.314;2023-04-06T05:25:05;68.32;;;12.90;;
1308;SDS011;647;48.840;9.314;2023-04-06T05:27:32;70.82;;;13.63;;
1308;SDS011;647;48.840;9.314;2023-04-06T05:29:59;69.85;;;13.23;;
1308;SDS011;647;48.840;9.314;2023-04-06T05:32:26;70.30;;;13.95;;
1308;SDS011;647;48.840;9.314;2023-04-06T05:34:54;71.72;;;14.25;;
1308;SDS011;647;48.840;9.314;2023-04-06T05:37:21;68.22;;;13.00;;
1308;SDS011;647;48.840;9.314;2023-04-06T05:39:48;68.28;;;13.07;;
1308;SDS011;647;48.840;9.314;2023-04-06T05:42:17;72.38;;;14.25;;
1308;SDS011;647;48.840;9.314;2023-04-06T05:44:44;69.53;;;13.90;;
1308;SDS011;647;48.840;9.314;2023-04-06T05:47:12;69.50;;;13.50;;
1308;SDS011;647;48.840;9.314;2023-04-06T05:49:39;69.63;;;13.65;;
1308;SDS011;647;48.840;9.314;2023-04-06T05:52:08;70.15;;;13.43;;
1308;SDS011;647;48.840;9.314;2023-04-06T05:54:35;72.25;;;13.80;;
1308;SDS011;647;48.840;9.314;2023-04-06T05:57:03;71.05;;;12.50;;
1308;SDS011;647;48.840;9.314;2023-04-06T05:59:31;73.18;;;13.77;;
1308;SDS011;647;48.840;9.314;2023-04-06T06:01:58;72.70;;;14.02;;
1308;SDS011;647;48.840;9.314;2023-04-06T06:04:26;72.57;;;14.70;;
1308;SDS011;647;48.840;9.314;2023-04-06T06:06:53;69.43;;;12.55;;
1308;SDS011;647;48.840;9.314;2023-04-06T06:09:20;69.85;;;13.43;;
1308;SDS011;647;48.840;9.314;2023-04-06T06:11:48;72.72;;;14.32;;
1308;SDS011;647;48.840;9.314;2023-04-06T06:14:15;68.53;;;13.40;;
1308;SDS011;647;48.840;9.314;2023-04-06T06:16:43;71.13;;;13.00;;
1308;SDS011;647;48.840;9.314;2023-04-06T06:19:11;69.18;;;14.52;;
1308;SDS011;647;48.840;9.314;2023-04-06T06:21:38;69.60;;;13.25;;
1308;SDS011;647;48.840;9.314;2023-04-06T06:24:05;69.20;;;13.07;;
1308;SDS011;647;48.840;9.314;2023-04-06T06:26:32;69.65;;;13.75;;
1308;SDS011;647;48.840;9.314;2023-04-06T06:29:02;71.13;;;13.75;;
1308;SDS011;647;48.840;9.314;2023-04-06T06:31:30;72.80;;;14.77;;
1308;SDS011;647;48.840;9.314;2023-04-06T06:33:58;73.28;;;14.93;;
1308;SDS011;647;48.840;9.314;2023-04-06T06:36:26;70.65;;;13.38;;
1308;SDS011;647;48.840;9.314;2023-04-06T06:38:54;68.88;;;13.80;;
1308;SDS011;647;48.840;9.314;2023-04-06T06:41:21;70.53;;;14.05;;
1308;SDS011;647;48.840;9.314;2023-04-06T06:43:48;70.00;;;13.88;;
1308;SDS011;647;48.840;9.314;2023-04-06T06:46:15;70.55;;;14.57;;
1308;SDS011;647;48.840;9.314;2023-04-06T06:48:42;70.10;;;14.48;;
1308;SDS011;647;48.840;9.314;2023-04-06T06:51:11;70.00;;;13.63;;
1308;SDS011;647;48.840;9.314;2023-04-06T06:53:38;69.07;;;12.25;;
1308;SDS011;647;48.840;9.314;2023-04-06T06:56:05;68.22;;;13.45;;
1308;SDS011;647;48.840;9.314;2023-04-06T06:58:33;68.40;;;12.68;;
1308;SDS011;647;48.840;9.314;2023-04-06T07:01:00;69.38;;;13.43;;
1308;SDS011;647;48.840;9.314;2023-04-06T07:03:27;71.15;;;13.27;;
1308;SDS011;647;48.840;9.314;2023-04-06T07:05:55;68.28;;;13.07;;
1308;SDS011;647;48.840;9.314;2023-04-06T07:08:23;67.78;;;12.85;;
1308;SDS011;647;48.840;9.314;2023-04-06T07:10:51;71.57;;;13.38;;
1308;SDS011;647;48.840;9.314;2023-04-06T07:13:21;75.18;;;12.35;;
1308;SDS011;647;48.840;9.314;2023-04-06T07:15:48;69.72;;;13.18;;
1308;SDS011;647;48.840;9.314;2023-04-06T07:18:16;69.55;;;13.82;;
1308;SDS011;647;48.840;9.314;2023-04-06T07:20:43;69.63;;;13.65;;
1308;SDS011;647;48.840;9.314;2023-04-06T07:23:10;73.55;;;14.15;;
1308;SDS011;647;48.840;9.314;2023-04-06T07:25:39;70.82;;;14.10;;
1308;SDS011;647;48.840;9.314;2023-04-06T07:28:06;70.30;;;12.93;;
1308;SDS011;647;48.840;9.314;2023-04-06T07:30:33;75.22;;;13.18;;
1308;SDS011;647;48.840;9.314;2023-04-06T07:33:00;74.32;;;14.18;;
1308;SDS011;647;48.840;9.314;2023-04-06T07:35:27;68.97;;;13.18;;
1308;SDS011;647;48.840;9.314;2023-04-06T07:37:55;73.00;;;13.80;;
1308;SDS011;647;48.840;9.314;2023-04-06T07:40:22;66.82;;;11.82;;
1308;SDS011;647;48.840;9.314;2023-04-06T07:42:52;71.10;;;14.32;;
1308;SDS011;647;48.840;9.314;2023-04-06T07:45:20;69.30;;;13.32;;
1308;SDS011;647;48.840;9.314;2023-04-06T07:47:47;69.47;;;13.57;;
1308;SDS011;647;48.840;9.314;2023-04-06T07:50:14;72.80;;;12.80;;
1308;SDS011;647;48.840;9.314;2023-04-06T07:52:42;68.82;;;13.38;;
1308;SDS011;647;48.840;9.314;2023-04-06T07:55:09;70.90;;;13.82;;
1308;SDS011;647;48.840;9.314;2023-04-06T07:57:36;67.45;;;12.13;;
1308;SDS011;647;48.840;9.314;2023-04-06T08:00:06;70.13;;;13.35;;
1308;SDS011;647;48.840;9.314;2023-04-06T08:02:34;70.57;;;11.93;;
1308;SDS011;647;48.840;9.314;2023-04-06T08:05:01;70.25;;;12.60;;
1308;SDS011;647;48.840;9.314;2023-04-06T08:07:28;73.45;;;12.65;;
1308;SDS011;647;48.840;9.314;2023-04-06T08:09:55;68.03;;;11.77;;
1308;SDS011;647;48.840;9.314;2023-04-06T08:12:23;69.25;;;11.80;;
1308;SDS011;647;48.840;9.314;2023-04-06T08:14:50;67.18;;;12.13;;
1308;SDS011;647;48.840;9.314;2023-04-06T08:17:19;69.35;;;12.45;;
1308;SDS011;647;48.840;9.314;2023-04-06T08:19:46;70.60;;;11.80;;
1308;SDS011;647;48.840;9.314;2023-04-06T08:22:14;69.35;;;12.38;;
1308;SDS011;647;48.840;9.314;2023-04-06T08:24:41;68.63;;;11.70;;
1308;SDS011;647;48.840;9.314;2023-04-06T08:27:08;68.23;;;12.30;;
1308;SDS011;647;48.840;9.314;2023-04-06T08:29:36;71.55;;;12.27;;
1308;SDS011;647;48.840;9.314;2023-04-06T08:32:03;73.73;;;12.87;;
1308;SDS011;647;48.840;9.314;2023-04-06T08:34:33;68.03;;;11.95;;
1308;SDS011;647;48.840;9.314;2023-04-06T08:37:00;67.50;;;11.57;;
1308;SDS011;647;48.840;9.314;2023-04-06T08:39:27;69.10;;;12.07;;
1308;SDS011;647;48.840;9.314;2023-04-06T08:41:55;71.70;;;12.57;;
1308;SDS011;647;48.840;9.314;2023-04-06T08:44:24;68.37;;;12.57;;
1308;SDS011;647;48.840;9.314;2023-04-06T08:46:52;68.80;;;10.93;;
1308;SDS011;647;48.840;9.314;2023-04-06T08:49:19;70.27;;;12.40;;
1308;SDS011;647;48.840;9.314;2023-04-06T08:51:48;68.50;;;11.87;;
1308;SDS011;647;48.840;9.314;2023-04-06T08:54:16;68.90;;;12.37;;
1308;SDS011;647;48.840;9.314;2023-04-06T08:56:43;69.33;;;10.87;;
1308;SDS011;647;48.840;9.314;2023-04-06T08:59:10;70.40;;;11.70;;
1308;SDS011;647;48.840;9.314;2023-04-06T09:01:38;70.13;;;12.70;;
1308;SDS011;647;48.840;9.314;2023-04-06T09:04:07;69.83;;;11.97;;
1308;SDS011;647;48.840;9.314;2023-04-06T09:06:35;67.23;;;11.50;;
1308;SDS011;647;48.840;9.314;2023-04-06T09:09:04;68.23;;;10.77;;
1308;SDS011;647;48.840;9.314;2023-04-06T09:11:41;68.97;;;12.63;;
1308;SDS011;647;48.840;9.314;2023-04-06T09:14:08;67.57;;;11.23;;
1308;SDS011;647;48.840;9.314;2023-04-06T09:16:38;68.40;;;11.00;;
1308;SDS011;647;48.840;9.314;2023-04-06T09:19:06;70.20;;;11.80;;
1308;SDS011;647;48.840;9.314;2023-04-06T09:21:33;67.27;;;11.50;;
1308;SDS011;647;48.840;9.314;2023-04-06T09:24:02;67.00;;;11.40;;
1308;SDS011;647;48.840;9.314;2023-04-06T09:26:31;67.20;;;11.50;;
1308;SDS011;647;48.840;9.314;2023-04-06T09:28:58;68.47;;;11.40;;
1308;SDS011;647;48.840;9.314;2023-04-06T09:31:29;67.53;;;10.67;;
1308;SDS011;647;48.840;9.314;2023-04-06T09:33:58;69.17;;;11.70;;
1308;SDS011;647;48.840;9.314;2023-04-06T09:36:31;68.80;;;12.50;;
1308;SDS011;647;48.840;9.314;2023-04-06T09:38:59;68.07;;;11.60;;
1308;SDS011;647;48.840;9.314;2023-04-06T09:41:27;67.90;;;11.60;;
1308;SDS011;647;48.840;9.314;2023-04-06T09:44:03;70.77;;;12.50;;
1308;SDS011;647;48.840;9.314;2023-04-06T09:46:31;68.00;;;11.57;;
1308;SDS011;647;48.840;9.314;2023-04-06T09:48:59;67.67;;;9.87;;
1308;SDS011;647;48.840;9.314;2023-04-06T09:51:27;69.57;;;10.10;;
1308;SDS011;647;48.840;9.314;2023-04-06T09:53:55;68.00;;;10.00;;
1308;SDS011;647;48.840;9.314;2023-04-06T09:56:27;65.83;;;9.77;;
1308;SDS011;647;48.840;9.314;2023-04-06T09:58:56;65.43;;;9.27;;
1308;SDS011;647;48.840;9.314;2023-04-06T10:01:26;64.20;;;9.17;;
1308;SDS011;647;48.840;9.314;2023-04-06T10:03:56;66.23;;;9.30;;
1308;SDS011;647;48.840;9.314;2023-04-06T10:06:28;65.10;;;9.30;;
1308;SDS011;647;48.840;9.314;2023-04-06T10:08:57;64.67;;;10.67;;
1308;SDS011;647;48.840;9.314;2023-04-06T10:11:25;66.53;;;9.70;;
1308;SDS011;647;48.840;9.314;2023-04-06T10:13:52;67.43;;;12.50;;
1308;SDS011;647;48.840;9.314;2023-04-06T10:16:19;70.03;;;12.70;;
1308;SDS011;647;48.840;9.314;2023-04-06T10:18:49;65.57;;;11.70;;
1308;SDS011;647;48.840;9.314;2023-04-06T10:21:19;64.40;;;10.60;;
1308;SDS011;647;48.840;9.314;2023-04-06T10:23:47;63.50;;;9.60;;
1308;SDS011;647;48.840;9.314;2023-04-06T10:26:15;65.23;;;11.20;;
1308;SDS011;647;48.840;9.314;2023-04-06T10:28:44;65.20;;;11.50;;
1308;SDS011;647;48.840;9.314;2023-04-06T10:31:12;65.20;;;9.70;;
1308;SDS011;647;48.840;9.314;2023-04-06T10:33:39;66.20;;;10.03;;
1308;SDS011;647;48.840;9.314;2023-04-06T10:36:12;66.63;;;11.13;;
1308;SDS011;647;48.840;9.314;2023-04-06T10:38:39;64.07;;;10.47;;
1308;SDS011;647;48.840;9.314;2023-04-06T10:41:07;62.47;;;8.87;;
1308;SDS011;647;48.840;9.314;2023-04-06T10:43:35;64.27;;;10.53;;
1308;SDS011;647;48.840;9.314;2023-04-06T10:46:03;62.70;;;8.93;;
1308;SDS011;647;48.840;9.314;2023-04-06T10:48:37;65.47;;;10.93;;
1308;SDS011;647;48.840;9.314;2023-04-06T10:51:09;64.20;;;10.87;;
1308;SDS011;647;48.840;9.314;2023-04-06T10:53:38;66.17;;;10.63;;
1308;SDS011;647;48.840;9.314;2023-04-06T10:56:09;63.27;;;10.03;;
1308;SDS011;647;48.840;9.314;2023-04-06T10:58:37;63.60;;;9.57;;
1308;SDS011;647;48.840;9.314;2023-04-06T11:01:04;64.10;;;9.60;;
1308;SDS011;647;48.840;9.314;2023-04-06T11:03:31;64.37;;;10.07;;
1308;SDS011;647;48.840;9.314;2023-04-06T11:05:59;63.00;;;10.17;;
1308;SDS011;647;48.840;9.314;2023-04-06T11:08:28;64.27;;;10.17;;
1308;SDS011;647;48.840;9.314;2023-04-06T11:11:07;64.77;;;9.77;;
1308;SDS011;647;48.840;9.314;2023-04-06T11:13:40;62.87;;;9.20;;
1308;SDS011;647;48.840;9.314;2023-04-06T11:16:11;63.30;;;9.47;;
1308;SDS011;647;48.840;9.314;2023-04-06T11:18:46;63.70;;;10.77;;
1308;SDS011;647;48.840;9.314;2023-04-06T11:21:13;64.27;;;10.40;;
1308;SDS011;647;48.840;9.314;2023-04-06T11:23:40;62.97;;;9.20;;
1308;SDS011;647;48.840;9.314;2023-04-06T11:26:11;64.40;;;10.37;;
1308;SDS011;647;48.840;9.314;2023-04-06T11:28:39;63.97;;;10.40;;
1308;SDS011;647;48.840;9.314;2023-04-06T11:31:06;62.63;;;9.40;;
1308;SDS011;647;48.840;9.314;2023-04-06T11:33:37;64.37;;;9.50;;
1308;SDS011;647;48.840;9.314;2023-04-06T11:36:05;64.40;;;10.33;;
1308;SDS011;647;48.840;9.314;2023-04-06T11:38:32;62.63;;;9.20;;
1308;SDS011;647;48.840;9.314;2023-04-06T11:41:00;63.37;;;9.43;;
1308;SDS011;647;48.840;9.314;2023-04-06T11:43:29;62.37;;;9.07;;
1308;SDS011;647;48.840;9.314;2023-04-06T11:45:59;63.17;;;9.30;;
1308;SDS011;647;48.840;9.314;2023-04-06T11:48:27;63.90;;;9.03;;
1308;SDS011;647;48.840;9.314;2023-04-06T11:50:55;65.20;;;9.57;;
1308;SDS011;647;48.840;9.314;2023-04-06T11:53:23;63.30;;;9.10;;
1308;SDS011;647;48.840;9.314;2023-04-06T11:55:50;62.77;;;9.50;;
1308;SDS011;647;48.840;9.314;2023-04-06T11:58:17;63.20;;;9.57;;
1308;SDS011;647;48.840;9.314;2023-04-06T12:00:46;62.30;;;9.33;;
1308;SDS011;647;48.840;9.314;2023-04-06T12:03:13;63.80;;;8.70;;
1308;SDS011;647;48.840;9.314;2023-04-06T12:05:40;62.87;;;8.87;;
1308;SDS011;647;48.840;9.314;2023-04-06T12:08:07;62.97;;;8.30;;
1308;SDS011;647;48.840;9.314;2023-04-06T12:10:35;62.70;;;8.50;;
1308;SDS011;647;48.840;9.314;2023-04-06T12:13:02;62.30;;;7.80;;
1308;SDS011;647;48.840;9.314;2023-04-06T12:15:29;62.63;;;8.43;;
1308;SDS011;647;48.840;9.314;2023-04-06T12:17:58;62.27;;;8.60;;
1308;SDS011;647;48.840;9.314;2023-04-06T12:20:25;63.20;;;8.17;;
1308;SDS011;647;48.840;9.314;2023-04-06T12:22:52;64.60;;;8.97;;
1308;SDS011;647;48.840;9.314;2023-04-06T12:25:19;61.30;;;8.33;;
1308;SDS011;647;48.840;9.314;2023-04-06T12:27:47;62.67;;;8.70;;
1308;SDS011;647;48.840;9.314;2023-04-06T12:30:14;60.57;;;8.10;;
1308;SDS011;647;48.840;9.314;2023-04-06T12:32:41;60.90;;;7.50;;
1308;SDS011;647;48.840;9.314;2023-04-06T12:35:10;61.77;;;8.67;;
1308;SDS011;647;48.840;9.314;2023-04-06T12:37:40;61.57;;;8.03;;
1308;SDS011;647;48.840;9.314;2023-04-06T12:40:08;69.83;;;8.40;;
1308;SDS011;647;48.840;9.314;2023-04-06T12:42:38;61.47;;;8.30;;
1308;SDS011;647;48.840;9.314;2023-04-06T12:45:06;62.67;;;8.40;;
1308;SDS011;647;48.840;9.314;2023-04-06T12:47:33;61.70;;;8.07;;
1308;SDS011;647;48.840;9.314;2023-04-06T12:50:02;63.67;;;8.30;;
1308;SDS011;647;48.840;9.314;2023-04-06T12:52:31;60.30;;;6.80;;
1308;SDS011;647;48.840;9.314;2023-04-06T12:55:00;62.97;;;7.87;;
1308;SDS011;647;48.840;9.314;2023-04-06T12:57:27;60.50;;;6.60;;
1308;SDS011;647;48.840;9.314;2023-04-06T12:59:56;60.77;;;7.03;;
1308;SDS011;647;48.840;9.314;2023-04-06T13:02:23;61.20;;;7.00;;
1308;SDS011;647;48.840;9.314;2023-04-06T13:04:51;60.67;;;6.97;;
1308;SDS011;647;48.840;9.314;2023-04-06T13:07:18;60.07;;;6.27;;
1308;SDS011;647;48.840;9.314;2023-04-06T13:09:47;61.57;;;6.87;;
1308;SDS011;647;48.840;9.314;2023-04-06T13:12:14;61.97;;;6.63;;
1308;SDS011;647;48.840;9.314;2023-04-06T13:14:41;61.80;;;6.50;;
1308;SDS011;647;48.840;9.314;2023-04-06T13:17:09;60.83;;;6.30;;
1308;SDS011;647;48.840;9.314;2023-04-06T13:19:36;61.60;;;7.83;;
1308;SDS011;647;48.840;9.314;2023-04-06T13:22:03;60.40;;;6.90;;
1308;SDS011;647;48.840;9.314;2023-04-06T13:24:30;60.73;;;7.00;;
1308;SDS011;647;48.840;9.314;2023-04-06T13:27:00;61.70;;;7.17;;
1308;SDS011;647;48.840;9.314;2023-04-06T13:29:27;63.20;;;7.40;;
1308;SDS011;647;48.840;9.314;2023-04-06T13:31:54;62.07;;;7.10;;
1308;SDS011;647;48.840;9.314;2023-04-06T13:34:22;61.37;;;6.30;;
1308;SDS011;647;48.840;9.314;2023-04-06T13:36:49;63.97;;;6.97;;
1308;SDS011;647;48.840;9.314;2023-04-06T13:39:16;62.43;;;7.40;;
1308;SDS011;647;48.840;9.314;2023-04-06T13:41:43;62.77;;;8.27;;
1308;SDS011;647;48.840;9.314;2023-04-06T13:44:12;61.77;;;6.70;;
1308;SDS011;647;48.840;9.314;2023-04-06T13:46:39;61.23;;;6.93;;
1308;SDS011;647;48.840;9.314;2023-04-06T13:49:06;61.00;;;7.10;;
1308;SDS011;647;48.840;9.314;2023-04-06T13:51:33;62.43;;;8.10;;
1308;SDS011;647;48.840;9.314;2023-04-06T13:54:01;62.63;;;8.20;;
1308;SDS011;647;48.840;9.314;2023-04-06T13:56:28;62.93;;;7.97;;
1308;SDS011;647;48.840;9.314;2023-04-06T13:58:55;62.00;;;8.20;;
1308;SDS011;647;48.840;9.314;2023-04-06T14:01:25;62.53;;;7.03;;
1308;SDS011;647;48.840;9.314;2023-04-06T14:03:52;62.10;;;7.87;;
1308;SDS011;647;48.840;9.314;2023-04-06T14:06:19;62.37;;;7.80;;
1308;SDS011;647;48.840;9.314;2023-04-06T14:08:46;61.40;;;7.33;;
1308;SDS011;647;48.840;9.314;2023-04-06T14:11:13;61.60;;;7.00;;
1308;SDS011;647;48.840;9.314;2023-04-06T14:13:41;61.40;;;7.23;;
1308;SDS011;647;48.840;9.314;2023-04-06T14:16:08;62.37;;;7.67;;
1308;SDS011;647;48.840;9.314;2023-04-06T14:18:37;62.57;;;7.43;;
1308;SDS011;647;48.840;9.314;2023-04-06T14:21:04;64.50;;;7.80;;
1308;SDS011;647;48.840;9.314;2023-04-06T14:23:31;61.30;;;7.93;;
1308;SDS011;647;48.840;9.314;2023-04-06T14:26:02;63.77;;;8.23;;
1308;SDS011;647;48.840;9.314;2023-04-06T14:28:29;62.30;;;7.40;;
1308;SDS011;647;48.840;9.314;2023-04-06T14:30:57;63.80;;;8.50;;
1308;SDS011;647;48.840;9.314;2023-04-06T14:33:25;61.07;;;7.33;;
1308;SDS011;647;48.840;9.314;2023-04-06T14:35:54;61.50;;;7.10;;
1308;SDS011;647;48.840;9.314;2023-04-06T14:38:21;62.47;;;7.37;;
1308;SDS011;647;48.840;9.314;2023-04-06T14:40:49;62.60;;;7.30;;
1308;SDS011;647;48.840;9.314;2023-04-06T14:43:16;61.50;;;7.07;;
1308;SDS011;647;48.840;9.314;2023-04-06T14:45:43;61.07;;;7.30;;
1308;SDS011;647;48.840;9.314;2023-04-06T14:48:10;62.77;;;7.23;;
1308;SDS011;647;48.840;9.314;2023-04-06T14:50:38;60.97;;;7.17;;
1308;SDS011;647;48.840;9.314;2023-04-06T14:53:06;62.03;;;7.60;;
1308;SDS011;647;48.840;9.314;2023-04-06T14:55:38;62.87;;;8.37;;
1308;SDS011;647;48.840;9.314;2023-04-06T14:58:06;62.13;;;7.40;;
1308;SDS011;647;48.840;9.314;2023-04-06T15:00:34;62.60;;;7.50;;
1308;SDS011;647;48.840;9.314;2023-04-06T15:03:01;63.50;;;7.90;;
1308;SDS011;647;48.840;9.314;2023-04-06T15:05:28;62.60;;;7.90;;
1308;SDS011;647;48.840;9.314;2023-04-06T15:07:59;62.50;;;6.90;;